Time;durP1;ratioP1;P1;durP2;ratioP2;P2;SDS_P1;SDS_P2;PMS_P1;PMS_P2;Temp;Humidity;BMP_temperature;BMP_pressure;BME280_temperature;BME280_humidity;BME280_pressure;Samples;Min_cycle;Max_cycle;Signal;HPM_P1;HPM_P2
2022/07/29 00:00:08;;;;;;;7.63;1.15;;;15.60;99.90;;;;;;5064505;28;255429;-65
2022/07/29 00:02:34;;;;;;;7.97;1.50;;;15.60;99.90;;;;;;5033592;28;212808;-65
2022/07/29 00:05:01;;;;;;;5.57;1.30;;;15.60;99.90;;;;;;5041259;28;252698;-66
2022/07/29 00:07:27;;;;;;;7.03;1.38;;;15.60;99.90;;;;;;5025094;28;220911;-66
2022/07/29 00:09:53;;;;;;;6.53;1.50;;;15.60;99.90;;;;;;5062428;28;273451;-66
2022/07/29 00:12:21;;;;;;;7.63;1.67;;;15.60;99.90;;;;;;5035503;28;213295;-66
2022/07/29 00:14:47;;;;;;;6.85;1.48;;;15.60;99.90;;;;;;5062396;28;255210;-65
2022/07/29 00:17:13;;;;;;;6.75;1.50;;;15.60;99.90;;;;;;5039891;28;210184;-66
2022/07/29 00:19:39;;;;;;;6.30;1.33;;;15.60;99.90;;;;;;5062000;28;258463;-66
2022/07/29 00:22:05;;;;;;;5.72;1.45;;;15.60;99.90;;;;;;5039375;28;207965;-66
2022/07/29 00:24:32;;;;;;;8.13;1.50;;;15.60;99.90;;;;;;5053368;28;203249;-66
2022/07/29 00:26:58;;;;;;;7.72;1.50;;;15.50;99.90;;;;;;5019919;28;209905;-66
2022/07/29 00:29:24;;;;;;;6.55;1.50;;;15.50;99.90;;;;;;5062655;28;272334;-65
2022/07/29 00:31:50;;;;;;;5.95;1.50;;;15.50;99.90;;;;;;5035706;28;213756;-66
2022/07/29 00:37:01;;;;;;;6.65;1.60;;;15.50;99.90;;;;;;5032996;28;209940;-66
2022/07/29 00:39:28;;;;;;;7.53;1.60;;;15.50;99.90;;;;;;5051447;28;243128;-67
2022/07/29 00:41:54;;;;;;;6.68;1.45;;;15.40;99.90;;;;;;5038560;28;214832;-66
2022/07/29 00:44:20;;;;;;;6.72;1.52;;;15.40;99.90;;;;;;5061549;28;271002;-66
2022/07/29 00:46:46;;;;;;;7.82;1.88;;;15.40;99.90;;;;;;5023156;28;210335;-66
2022/07/29 00:49:13;;;;;;;7.38;1.67;;;15.40;99.90;;;;;;5057702;28;250327;-65
2022/07/29 00:51:39;;;;;;;8.68;1.85;;;15.40;99.90;;;;;;5032656;28;214677;-66
2022/07/29 00:54:05;;;;;;;6.50;1.60;;;15.40;99.90;;;;;;5062273;28;251873;-66
2022/07/29 00:56:33;;;;;;;6.25;1.70;;;15.30;99.90;;;;;;5024216;28;207692;-66
2022/07/29 00:58:59;;;;;;;6.70;1.60;;;15.40;99.90;;;;;;5062118;28;257839;-65
2022/07/29 01:01:26;;;;;;;7.70;1.75;;;15.30;99.90;;;;;;5033576;28;231145;-66
2022/07/29 01:03:53;;;;;;;6.80;1.55;;;15.30;99.90;;;;;;5042376;28;147477;-67
2022/07/29 01:06:19;;;;;;;7.20;1.60;;;15.30;99.90;;;;;;5036871;28;210797;-66
2022/07/29 01:08:48;;;;;;;8.88;1.90;;;15.30;99.90;;;;;;5051955;28;239199;-67
2022/07/29 01:11:16;;;;;;;7.28;1.70;;;15.30;99.90;;;;;;5023413;28;205929;-66
2022/07/29 01:13:44;;;;;;;10.05;2.00;;;15.20;99.90;;;;;;5055467;28;115655;-66
2022/07/29 01:16:17;;;;;;;7.20;1.70;;;15.20;99.90;;;;;;5039916;28;208480;-65
2022/07/29 01:18:49;;;;;;;7.30;1.70;;;15.20;99.90;;;;;;5068096;28;258883;-66
2022/07/29 01:21:37;;;;;;;8.77;1.67;;;15.20;99.90;;;;;;5031648;28;223393;-66
2022/07/29 01:24:42;;;;;;;7.82;1.75;;;15.20;99.90;;;;;;5061533;28;278729;-65
2022/07/29 01:27:08;;;;;;;8.10;1.60;;;15.10;99.90;;;;;;4961058;28;205969;-66
2022/07/29 01:29:43;;;;;;;7.38;1.70;;;15.10;99.90;;;;;;4995852;28;20063;-66
2022/07/29 01:32:18;;;;;;;7.05;1.70;;;15.10;99.90;;;;;;4988407;28;142704;-66
2022/07/29 01:35:05;;;;;;;7.72;1.80;;;15.10;99.90;;;;;;4997587;28;57701;-66
2022/07/29 01:37:50;;;;;;;6.30;1.58;;;15.10;99.90;;;;;;4959521;28;209611;-66
2022/07/29 01:40:56;;;;;;;10.52;1.85;;;15.10;99.90;;;;;;5011272;28;153953;-66
2022/07/29 01:43:36;;;;;;;5.93;1.77;;;15.10;99.90;;;;;;4945487;28;219814;-66
2022/07/29 01:46:06;;;;;;;5.90;1.70;;;15.10;99.90;;;;;;4978484;28;205687;-66
2022/07/29 01:48:40;;;;;;;8.30;1.83;;;15.10;99.90;;;;;;5012739;28;89456;-67
2022/07/29 01:51:16;;;;;;;8.55;2.00;;;15.00;99.90;;;;;;4980714;28;215099;-66
2022/07/29 01:53:49;;;;;;;9.07;1.90;;;15.00;99.90;;;;;;4990576;28;230742;-66
2022/07/29 01:56:18;;;;;;;8.70;1.98;;;15.10;99.90;;;;;;4978773;28;212533;-66
2022/07/29 01:58:46;;;;;;;7.88;1.92;;;15.00;99.90;;;;;;4990956;28;218152;-65
2022/07/29 02:01:13;;;;;;;7.07;1.90;;;15.00;99.90;;;;;;4964377;28;212936;-66
2022/07/29 02:03:42;;;;;;;6.53;1.60;;;15.00;99.90;;;;;;4994247;28;129156;-66
2022/07/29 02:06:11;;;;;;;9.93;2.00;;;15.00;99.90;;;;;;5021507;28;206436;-66
2022/07/29 02:08:38;;;;;;;6.90;1.80;;;15.10;99.90;;;;;;5048991;28;270743;-66
2022/07/29 02:11:06;;;;;;;7.65;1.85;;;15.00;99.90;;;;;;5017627;28;210906;-66
2022/07/29 02:13:35;;;;;;;8.25;2.08;;;15.00;99.90;;;;;;5053523;28;273710;-66
2022/07/29 02:16:05;;;;;;;7.85;2.30;;;15.00;99.90;;;;;;5037916;28;221843;-66
2022/07/29 02:18:33;;;;;;;9.15;1.80;;;15.10;99.90;;;;;;5053027;28;263694;-65
2022/07/29 02:21:00;;;;;;;9.40;2.17;;;15.10;99.90;;;;;;5030408;28;208154;-66
2022/07/29 02:23:28;;;;;;;9.73;2.00;;;15.10;99.90;;;;;;5064621;28;276415;-65
2022/07/29 02:25:56;;;;;;;7.88;1.90;;;15.00;99.90;;;;;;5037670;28;206521;-66
2022/07/29 02:28:26;;;;;;;9.35;1.90;;;15.00;99.90;;;;;;5050772;28;255795;-66
2022/07/29 02:30:55;;;;;;;7.80;1.90;;;15.00;99.90;;;;;;5023457;28;206238;-66
2022/07/29 02:33:23;;;;;;;9.63;2.03;;;15.10;99.90;;;;;;5050464;28;276449;-66
2022/07/29 02:35:50;;;;;;;8.00;1.90;;;15.10;99.90;;;;;;5035482;28;211941;-66
2022/07/29 02:41:13;;;;;;;9.10;1.98;;;15.10;99.90;;;;;;5036808;28;209937;-66
2022/07/29 02:43:43;;;;;;;7.68;1.73;;;15.10;99.90;;;;;;5054421;28;233847;-66
2022/07/29 02:46:26;;;;;;;8.63;2.03;;;15.10;99.90;;;;;;5033433;28;140658;-65
2022/07/29 02:48:58;;;;;;;7.63;1.70;;;15.10;99.90;;;;;;5064450;28;263891;-66
2022/07/29 02:51:39;;;;;;;8.85;1.80;;;15.10;99.90;;;;;;5041629;28;217494;-66
2022/07/29 02:54:08;;;;;;;7.85;2.05;;;15.10;99.90;;;;;;5064309;28;262390;-66
2022/07/29 02:56:37;;;;;;;9.57;1.70;;;15.10;99.90;;;;;;5033985;28;202967;-66
2022/07/29 02:59:11;;;;;;;7.75;1.60;;;15.10;99.90;;;;;;5060619;28;47216;-66
2022/07/29 03:01:43;;;;;;;6.78;1.80;;;15.10;99.90;;;;;;5034980;28;210383;-66
2022/07/29 03:04:11;;;;;;;7.97;1.40;;;15.20;99.90;;;;;;5040077;28;201627;-66
2022/07/29 03:06:39;;;;;;;7.20;1.60;;;15.20;99.90;;;;;;5036911;28;207684;-66
2022/07/29 03:09:07;;;;;;;9.07;1.67;;;15.20;99.90;;;;;;5057023;28;142161;-66
2022/07/29 03:11:35;;;;;;;6.03;1.52;;;15.20;99.90;;;;;;5031856;28;200878;-65
2022/07/29 03:14:01;;;;;;;6.85;1.60;;;15.20;99.90;;;;;;5063163;28;275505;-65
2022/07/29 03:16:28;;;;;;;6.78;1.50;;;15.20;99.90;;;;;;5021058;28;215985;-65
2022/07/29 03:18:54;;;;;;;7.32;1.73;;;15.20;99.90;;;;;;5064225;28;253861;-66
2022/07/29 03:21:20;;;;;;;7.82;1.50;;;15.20;99.90;;;;;;5041446;28;208223;-66
2022/07/29 03:23:46;;;;;;;9.10;1.80;;;15.20;99.90;;;;;;5063899;28;273726;-66
2022/07/29 03:26:13;;;;;;;8.50;1.85;;;15.20;99.90;;;;;;5023333;28;210251;-66
2022/07/29 03:28:39;;;;;;;6.45;1.60;;;15.20;99.90;;;;;;5063506;28;272048;-66
2022/07/29 03:31:05;;;;;;;8.18;1.50;;;15.20;99.90;;;;;;5035504;28;209735;-65
2022/07/29 03:33:31;;;;;;;7.70;1.83;;;15.20;99.90;;;;;;5064325;28;261589;-65
2022/07/29 03:35:58;;;;;;;7.57;1.67;;;15.20;99.90;;;;;;5047009;28;211157;-65
2022/07/29 03:38:27;;;;;;;7.43;1.35;;;15.20;99.90;;;;;;5063397;28;264074;-65
2022/07/29 03:40:56;;;;;;;5.90;1.48;;;15.20;99.90;;;;;;5026429;28;220120;-64
2022/07/29 03:43:26;;;;;;;9.27;1.60;;;15.20;99.90;;;;;;5062959;28;255541;-66
2022/07/29 03:45:54;;;;;;;7.03;1.48;;;15.20;99.90;;;;;;5034516;28;215426;-65
2022/07/29 03:48:23;;;;;;;9.55;1.70;;;15.10;99.90;;;;;;5049422;28;256466;-66
2022/07/29 03:50:50;;;;;;;9.18;1.70;;;15.10;99.90;;;;;;5034283;28;213903;-66
2022/07/29 03:53:17;;;;;;;7.40;1.70;;;15.10;99.90;;;;;;5048225;28;273713;-66
2022/07/29 03:55:45;;;;;;;7.97;1.53;;;15.10;99.90;;;;;;5016973;28;211383;-66
2022/07/29 03:58:13;;;;;;;7.72;1.80;;;15.10;99.90;;;;;;5067134;28;20064;-64
2022/07/29 04:00:42;;;;;;;7.35;1.55;;;15.10;99.90;;;;;;4986098;28;255117;-66
2022/07/29 04:03:10;;;;;;;7.90;1.67;;;15.10;99.90;;;;;;5082837;28;20052;-66
2022/07/29 04:05:36;;;;;;;8.85;1.60;;;15.10;99.90;;;;;;4990787;28;261173;-66
2022/07/29 04:08:02;;;;;;;8.05;1.60;;;15.10;99.90;;;;;;5084299;28;20077;-64
2022/07/29 04:10:28;;;;;;;9.18;1.80;;;15.10;99.90;;;;;;5048711;28;271272;-66
2022/07/29 04:12:55;;;;;;;7.25;1.73;;;15.10;99.90;;;;;;5044795;28;62757;-65
2022/07/29 04:15:21;;;;;;;7.13;1.88;;;15.10;99.90;;;;;;5064553;28;277156;-66
2022/07/29 04:17:47;;;;;;;8.70;2.10;;;15.10;99.90;;;;;;5033807;28;208678;-66
2022/07/29 04:20:13;;;;;;;7.75;1.77;;;15.10;99.90;;;;;;5039606;28;123890;-66
2022/07/29 04:22:40;;;;;;;10.25;2.00;;;15.10;99.90;;;;;;5019487;28;229935;-66
2022/07/29 04:25:07;;;;;;;8.63;1.70;;;15.10;99.90;;;;;;5055391;28;251653;-65
2022/07/29 04:27:33;;;;;;;7.07;1.63;;;15.10;99.90;;;;;;5049837;28;210917;-65
2022/07/29 04:29:59;;;;;;;6.60;1.70;;;15.10;99.90;;;;;;5063609;28;254523;-65
2022/07/29 04:32:26;;;;;;;9.13;2.00;;;15.10;99.90;;;;;;5034735;28;208938;-66
2022/07/29 04:34:52;;;;;;;7.50;1.60;;;15.10;99.90;;;;;;5054134;28;144561;-66
2022/07/29 04:37:18;;;;;;;5.68;1.55;;;15.10;99.90;;;;;;5020985;28;207518;-66
2022/07/29 04:39:44;;;;;;;6.70;1.88;;;15.10;99.90;;;;;;5062061;28;275052;-65
2022/07/29 04:42:11;;;;;;;8.77;1.80;;;15.10;99.90;;;;;;5035020;28;211002;-66
2022/07/29 04:44:37;;;;;;;10.85;1.80;;;15.10;99.90;;;;;;5057406;28;75565;-66
2022/07/29 04:47:03;;;;;;;8.48;1.60;;;15.20;99.90;;;;;;5024625;28;207989;-66
2022/07/29 04:49:29;;;;;;;7.47;1.77;;;15.20;99.90;;;;;;5063155;28;265961;-65
2022/07/29 04:51:55;;;;;;;8.15;1.65;;;15.20;99.90;;;;;;5027234;28;181189;-66
2022/07/29 04:54:22;;;;;;;8.20;1.70;;;15.20;99.90;;;;;;5038942;28;134658;-66
2022/07/29 04:56:48;;;;;;;9.30;2.00;;;15.20;99.90;;;;;;5026085;28;206498;-66
2022/07/29 04:59:14;;;;;;;6.82;1.60;;;15.30;99.90;;;;;;5057674;28;87012;-66
2022/07/29 05:01:40;;;;;;;8.73;1.85;;;15.30;99.90;;;;;;5032499;28;212717;-65
2022/07/29 05:04:06;;;;;;;10.07;1.77;;;15.30;99.90;;;;;;5039128;28;256959;-65
2022/07/29 05:06:32;;;;;;;8.00;1.55;;;15.40;99.90;;;;;;5017890;28;208059;-66
2022/07/29 05:08:58;;;;;;;7.90;1.70;;;15.30;99.90;;;;;;5057073;28;80952;-65
2022/07/29 05:11:25;;;;;;;7.85;1.80;;;15.40;99.90;;;;;;5036169;28;209058;-66
2022/07/29 05:13:51;;;;;;;9.82;1.80;;;15.40;99.90;;;;;;5045884;28;247019;-65
2022/07/29 05:16:17;;;;;;;8.65;1.90;;;15.40;99.90;;;;;;5028294;28;210070;-65
2022/07/29 05:18:43;;;;;;;8.23;1.80;;;15.40;99.90;;;;;;5062652;28;259120;-66
2022/07/29 05:21:09;;;;;;;10.18;1.70;;;15.40;99.90;;;;;;5031777;28;226374;-65
2022/07/29 05:23:35;;;;;;;7.03;1.70;;;15.50;99.90;;;;;;5061652;28;266010;-66
2022/07/29 05:26:01;;;;;;;9.05;1.80;;;15.50;99.90;;;;;;5021085;28;206254;-66
2022/07/29 05:28:27;;;;;;;8.32;2.00;;;15.50;99.90;;;;;;5062054;28;271683;-66
2022/07/29 05:30:53;;;;;;;10.32;1.90;;;15.60;99.90;;;;;;5034847;28;217519;-66
2022/07/29 05:33:20;;;;;;;9.00;1.70;;;15.60;99.90;;;;;;5048472;28;272564;-65
2022/07/29 05:35:46;;;;;;;9.87;1.70;;;15.60;99.90;;;;;;5018251;28;210291;-66
2022/07/29 05:38:12;;;;;;;9.32;2.10;;;15.70;99.90;;;;;;5067937;28;20059;-66
2022/07/29 05:40:38;;;;;;;6.80;1.70;;;15.70;99.90;;;;;;5032703;28;210868;-66
2022/07/29 05:43:04;;;;;;;8.68;1.60;;;15.70;99.90;;;;;;5066211;28;20055;-66
2022/07/29 05:45:31;;;;;;;10.15;2.15;;;15.70;99.90;;;;;;5033567;28;274154;-66
2022/07/29 05:47:57;;;;;;;8.13;1.80;;;15.80;99.90;;;;;;5048688;28;207670;-67
2022/07/29 05:50:23;;;;;;;6.70;1.73;;;15.80;99.90;;;;;;5063740;28;265088;-67
2022/07/29 05:52:49;;;;;;;6.88;1.70;;;15.80;99.90;;;;;;5039135;28;210233;-66
2022/07/29 05:55:15;;;;;;;9.75;1.80;;;15.80;99.90;;;;;;5064019;28;260169;-66
2022/07/29 05:57:43;;;;;;;8.10;1.63;;;15.80;99.90;;;;;;5037833;28;232249;-66
2022/07/29 06:00:10;;;;;;;9.55;1.92;;;15.90;99.90;;;;;;5059897;28;20060;-65
2022/07/29 06:02:36;;;;;;;8.75;2.00;;;15.90;99.90;;;;;;5020371;28;210060;-66
2022/07/29 06:05:02;;;;;;;9.57;2.03;;;15.90;99.90;;;;;;5033319;28;275847;-66
2022/07/29 06:07:28;;;;;;;8.20;1.80;;;16.00;99.90;;;;;;5032934;28;217169;-66
2022/07/29 06:09:54;;;;;;;13.13;2.00;;;16.00;99.90;;;;;;5061246;28;316858;-66
2022/07/29 06:12:21;;;;;;;9.95;1.85;;;16.00;99.90;;;;;;5037439;28;209641;-66
2022/07/29 06:14:47;;;;;;;6.70;1.83;;;16.00;99.90;;;;;;5063368;28;258386;-66
2022/07/29 06:17:14;;;;;;;9.35;1.90;;;16.10;99.90;;;;;;5009671;28;213054;-66
2022/07/29 06:19:40;;;;;;;7.53;1.90;;;16.10;99.90;;;;;;5055746;28;122874;-66
2022/07/29 06:22:06;;;;;;;9.45;1.70;;;16.20;99.90;;;;;;5032524;28;231507;-66
2022/07/29 06:24:32;;;;;;;8.52;1.70;;;16.30;99.90;;;;;;5061719;28;291120;-66
2022/07/29 06:26:58;;;;;;;9.52;1.88;;;16.40;99.90;;;;;;5040699;28;207863;-66
2022/07/29 06:29:25;;;;;;;7.43;1.70;;;16.50;99.90;;;;;;5060926;28;275257;-66
2022/07/29 06:31:51;;;;;;;8.45;1.80;;;16.50;99.90;;;;;;5021903;28;241317;-65
2022/07/29 06:34:17;;;;;;;9.43;1.80;;;16.60;99.90;;;;;;5062821;28;269716;-67
2022/07/29 06:36:43;;;;;;;9.00;1.90;;;16.70;99.90;;;;;;5032740;28;214080;-66
2022/07/29 06:39:09;;;;;;;8.23;1.55;;;16.90;99.90;;;;;;5054993;28;127530;-67
2022/07/29 06:41:35;;;;;;;8.18;1.80;;;17.00;99.90;;;;;;5042712;28;212921;-67
2022/07/29 06:44:02;;;;;;;9.13;1.80;;;17.00;99.90;;;;;;5062282;28;76393;-66
2022/07/29 06:46:28;;;;;;;10.05;2.20;;;17.10;99.90;;;;;;5021110;28;206122;-67
2022/07/29 06:48:54;;;;;;;10.15;2.03;;;17.20;99.90;;;;;;5064278;28;248725;-66
2022/07/29 06:51:21;;;;;;;8.23;1.70;;;17.30;99.90;;;;;;5035512;28;158239;-66
2022/07/29 06:53:47;;;;;;;8.15;1.88;;;17.50;99.90;;;;;;5054968;28;128814;-65
2022/07/29 06:56:13;;;;;;;8.75;1.83;;;17.60;99.90;;;;;;5039183;28;218988;-66
2022/07/29 06:58:40;;;;;;;10.80;2.25;;;17.70;99.90;;;;;;5063232;28;275775;-65
2022/07/29 07:01:06;;;;;;;12.50;1.92;;;17.80;99.90;;;;;;5022321;28;251613;-65
2022/07/29 07:03:33;;;;;;;8.45;1.92;;;17.80;99.90;;;;;;5017470;28;258637;-65
2022/07/29 07:05:59;;;;;;;9.75;1.90;;;17.90;99.90;;;;;;5028981;28;210718;-66
2022/07/29 07:08:25;;;;;;;7.10;1.80;;;18.00;99.90;;;;;;5064188;28;264955;-66
2022/07/29 07:10:52;;;;;;;8.57;1.77;;;18.10;99.90;;;;;;5040011;28;207376;-66
2022/07/29 07:13:19;;;;;;;9.27;1.92;;;18.20;99.90;;;;;;5063932;28;265343;-66
2022/07/29 07:15:47;;;;;;;8.43;1.75;;;18.30;99.90;;;;;;5036585;28;233927;-66
2022/07/29 07:18:14;;;;;;;8.40;1.65;;;18.30;99.90;;;;;;5085179;28;20505;-66
2022/07/29 07:20:41;;;;;;;10.00;1.90;;;18.30;99.90;;;;;;5033521;28;213006;-65
2022/07/29 07:23:07;;;;;;;12.52;1.70;;;18.30;99.90;;;;;;5083869;28;20468;-65
2022/07/29 07:25:33;;;;;;;8.88;1.80;;;18.40;99.90;;;;;;5017813;28;268157;-66
2022/07/29 07:27:59;;;;;;;8.88;1.98;;;18.40;99.90;;;;;;5085239;28;20410;-66
2022/07/29 07:30:27;;;;;;;11.70;1.70;;;18.40;99.90;;;;;;5066543;28;267283;-65
2022/07/29 07:32:54;;;;;;;9.23;1.90;;;18.50;99.90;;;;;;5024316;28;206872;-66
2022/07/29 07:35:20;;;;;;;9.50;1.88;;;18.40;99.90;;;;;;5066368;28;256366;-66
2022/07/29 07:37:46;;;;;;;9.98;1.98;;;18.30;99.90;;;;;;5023172;28;215319;-66
2022/07/29 07:40:13;;;;;;;7.70;1.92;;;18.30;99.90;;;;;;5066194;28;266191;-65
2022/07/29 07:42:40;;;;;;;8.73;1.80;;;18.30;99.90;;;;;;5028314;28;207504;-66
2022/07/29 07:45:09;;;;;;;8.27;1.70;;;18.30;99.90;;;;;;5064956;28;273115;-65
2022/07/29 07:47:38;;;;;;;9.10;2.05;;;18.30;99.90;;;;;;5047260;28;210469;-66
2022/07/29 07:50:08;;;;;;;8.65;1.65;;;18.40;99.90;;;;;;5064300;28;264155;-66
2022/07/29 07:52:34;;;;;;;7.43;1.80;;;18.30;99.90;;;;;;5034993;28;219216;-65
2022/07/29 07:55:00;;;;;;;8.88;1.80;;;18.40;99.90;;;;;;5062265;28;281539;-67
2022/07/29 07:57:27;;;;;;;11.27;2.13;;;18.50;99.90;;;;;;5035808;28;214642;-65
2022/07/29 07:59:53;;;;;;;9.95;1.98;;;18.60;99.90;;;;;;5053948;28;190158;-66
2022/07/29 08:02:19;;;;;;;8.48;1.80;;;18.70;99.90;;;;;;5034528;28;218613;-66
2022/07/29 08:04:45;;;;;;;12.05;2.00;;;18.90;99.90;;;;;;5047496;28;277230;-67
2022/07/29 08:07:11;;;;;;;10.27;1.90;;;19.00;99.90;;;;;;5041157;28;209269;-67
2022/07/29 08:09:37;;;;;;;10.02;2.15;;;19.00;99.90;;;;;;5061331;28;274043;-66
2022/07/29 08:12:05;;;;;;;11.05;2.10;;;19.10;99.90;;;;;;5047151;28;210550;-66
2022/07/29 08:14:32;;;;;;;7.82;1.83;;;19.20;99.80;;;;;;5062689;28;268606;-66
2022/07/29 08:16:59;;;;;;;10.30;2.10;;;19.30;99.50;;;;;;5035204;28;213060;-66
2022/07/29 08:19:25;;;;;;;10.88;2.20;;;19.40;99.40;;;;;;5056651;28;113526;-66
2022/07/29 08:21:53;;;;;;;7.43;1.73;;;19.50;99.40;;;;;;5034217;28;212492;-66
2022/07/29 08:27:04;;;;;;;10.05;1.98;;;19.70;99.30;;;;;;5027560;28;206436;-66
2022/07/29 08:29:31;;;;;;;9.57;1.90;;;19.70;99.20;;;;;;5062550;28;261161;-65
2022/07/29 08:31:57;;;;;;;10.88;2.10;;;19.90;99.00;;;;;;5040972;28;209556;-66
2022/07/29 08:34:23;;;;;;;9.43;2.03;;;20.00;99.00;;;;;;5051546;28;231437;-66
2022/07/29 08:36:49;;;;;;;8.77;2.20;;;20.40;99.00;;;;;;5045649;28;209738;-66
2022/07/29 08:39:15;;;;;;;12.57;2.17;;;20.60;98.70;;;;;;5062246;28;262260;-66
2022/07/29 08:41:41;;;;;;;11.13;2.20;;;20.70;98.50;;;;;;5034766;28;212877;-66
2022/07/29 08:44:09;;;;;;;6.95;1.90;;;20.80;98.20;;;;;;5061915;28;269735;-66
2022/07/29 08:46:39;;;;;;;9.50;2.03;;;20.90;98.20;;;;;;5034003;28;212202;-67
2022/07/29 08:49:05;;;;;;;10.05;2.10;;;21.00;97.80;;;;;;5062239;28;260238;-67
2022/07/29 08:51:35;;;;;;;8.27;2.22;;;20.90;97.60;;;;;;5018116;28;209675;-67
2022/07/29 08:54:02;;;;;;;10.68;2.10;;;20.70;97.30;;;;;;5061475;28;270767;-66
2022/07/29 08:56:29;;;;;;;8.60;2.08;;;20.60;97.50;;;;;;5043046;28;209324;-66
2022/07/29 08:58:58;;;;;;;7.45;2.00;;;20.50;97.50;;;;;;5061845;28;258115;-66
2022/07/29 09:01:29;;;;;;;9.60;2.20;;;20.60;97.50;;;;;;5043951;28;209492;-66
2022/07/29 09:03:56;;;;;;;8.38;2.03;;;20.60;97.40;;;;;;5021675;28;158288;-66
2022/07/29 09:06:26;;;;;;;7.95;1.77;;;20.70;97.40;;;;;;5023900;28;211034;-66
2022/07/29 09:08:52;;;;;;;11.80;2.60;;;20.70;97.40;;;;;;5062161;28;255336;-66
2022/07/29 09:11:18;;;;;;;9.55;2.30;;;20.70;97.20;;;;;;5019402;28;210397;-65
2022/07/29 09:13:45;;;;;;;9.27;2.28;;;20.50;97.20;;;;;;5060983;28;272991;-67
2022/07/29 09:16:11;;;;;;;9.18;2.40;;;20.50;97.40;;;;;;5036067;28;211705;-66
2022/07/29 09:18:45;;;;;;;9.35;2.00;;;20.50;97.30;;;;;;5049525;28;260115;-67
2022/07/29 09:24:10;;;;;;;9.55;2.22;;;20.50;97.40;;;;;;5055846;28;101617;-67
2022/07/29 09:26:42;;;;;;;8.18;1.88;;;20.60;97.30;;;;;;5043129;28;212787;-66
2022/07/29 09:29:18;;;;;;;11.50;2.47;;;20.70;97.30;;;;;;5056140;28;221844;-66
2022/07/29 09:31:47;;;;;;;8.70;2.30;;;20.80;97.20;;;;;;5032871;28;234378;-67
2022/07/29 09:34:15;;;;;;;9.73;2.28;;;20.80;97.20;;;;;;5061071;28;265053;-66
2022/07/29 09:36:47;;;;;;;9.20;2.30;;;20.70;97.20;;;;;;5022361;28;209366;-67
2022/07/29 09:39:15;;;;;;;10.07;2.38;;;20.70;97.20;;;;;;5061738;28;254068;-66
2022/07/29 09:42:05;;;;;;;9.05;2.30;;;20.70;97.00;;;;;;5033785;28;205649;-67
2022/07/29 09:44:58;;;;;;;13.23;2.83;;;20.70;96.80;;;;;;4966090;28;70304;-66
2022/07/29 09:47:48;;;;;;;9.63;2.50;;;20.60;96.60;;;;;;4947727;28;121642;-66
2022/07/29 09:50:15;;;;;;;11.07;2.63;;;20.60;97.00;;;;;;4976133;28;69529;-66
2022/07/29 09:52:51;;;;;;;10.95;2.08;;;20.60;97.00;;;;;;4955521;28;52696;-65
2022/07/29 09:55:17;;;;;;;9.48;2.53;;;20.70;96.90;;;;;;4989181;28;152780;-66
2022/07/29 09:57:45;;;;;;;9.20;2.63;;;20.70;97.00;;;;;;4944001;28;206257;-66
2022/07/29 10:00:17;;;;;;;10.50;2.70;;;20.80;97.30;;;;;;4976809;28;38612;-67
2022/07/29 10:02:46;;;;;;;8.43;2.30;;;20.90;97.40;;;;;;4941254;28;207079;-67
2022/07/29 10:05:23;;;;;;;8.88;2.20;;;20.90;97.80;;;;;;4958696;28;159965;-67
2022/07/29 10:07:56;;;;;;;11.93;2.65;;;21.00;97.90;;;;;;4941523;28;209980;-66
2022/07/29 10:10:26;;;;;;;10.70;2.28;;;21.00;97.70;;;;;;4971015;28;250399;-66
2022/07/29 10:12:57;;;;;;;10.27;2.50;;;21.10;97.70;;;;;;4935683;28;117215;-66
2022/07/29 10:15:25;;;;;;;7.45;2.10;;;21.20;97.40;;;;;;4976226;28;77553;-66
2022/07/29 10:17:52;;;;;;;8.93;2.10;;;21.20;97.10;;;;;;4944233;28;209830;-66
2022/07/29 10:20:20;;;;;;;8.50;2.08;;;21.30;97.20;;;;;;4970335;28;253169;-66
2022/07/29 10:22:48;;;;;;;8.90;2.40;;;21.30;97.10;;;;;;5030564;28;210794;-66
2022/07/29 10:25:15;;;;;;;10.65;2.38;;;21.30;97.00;;;;;;5052713;28;187031;-66
2022/07/29 10:27:43;;;;;;;10.80;2.28;;;21.30;96.60;;;;;;5032173;28;210110;-65
2022/07/29 10:30:10;;;;;;;8.95;2.20;;;21.40;96.50;;;;;;5062806;28;273301;-67
2022/07/29 10:33:01;;;;;;;11.88;2.40;;;21.50;96.40;;;;;;5033986;28;220743;-66
2022/07/29 10:35:38;;;;;;;11.07;2.20;;;21.60;96.10;;;;;;5058292;28;273223;-67
2022/07/29 10:38:15;;;;;;;9.23;2.22;;;21.80;96.20;;;;;;5039484;28;206031;-66
2022/07/29 10:43:48;;;;;;;11.27;2.60;;;22.10;96.10;;;;;;5056494;28;145882;-67
2022/07/29 10:46:15;;;;;;;10.00;2.20;;;22.20;95.90;;;;;;5036303;28;212810;-67
2022/07/29 10:49:05;;;;;;;10.43;2.33;;;22.30;95.60;;;;;;5064899;28;255128;-66
2022/07/29 10:51:50;;;;;;;9.82;2.33;;;22.40;95.10;;;;;;5026546;28;206721;-67
2022/07/29 10:54:18;;;;;;;10.23;2.25;;;22.50;95.40;;;;;;5064756;28;249928;-67
2022/07/29 10:56:44;;;;;;;9.45;2.25;;;22.70;95.30;;;;;;5042770;28;208905;-67
2022/07/29 10:59:23;;;;;;;11.68;2.20;;;22.90;94.90;;;;;;5064035;28;276255;-66
2022/07/29 11:01:51;;;;;;;8.63;2.17;;;23.10;94.50;;;;;;5034382;28;96331;-67
2022/07/29 11:04:45;;;;;;;9.35;2.17;;;23.40;94.70;;;;;;5046494;28;146591;-67
2022/07/29 11:07:12;;;;;;;8.85;2.00;;;23.80;94.10;;;;;;5041574;28;208668;-66
2022/07/29 11:09:38;;;;;;;10.45;2.47;;;24.10;94.00;;;;;;5063375;28;277850;-66
2022/07/29 11:12:35;;;;;;;10.93;2.03;;;24.30;93.80;;;;;;5010310;28;205745;-67
2022/07/29 11:15:02;;;;;;;10.82;2.40;;;24.70;93.20;;;;;;5052115;28;181089;-66
2022/07/29 11:17:29;;;;;;;9.45;2.08;;;24.90;93.00;;;;;;5003332;28;215588;-66
2022/07/29 11:20:32;;;;;;;9.43;2.00;;;25.10;92.70;;;;;;5052891;28;244539;-67
2022/07/29 11:22:59;;;;;;;9.40;2.45;;;25.60;92.10;;;;;;4990098;28;204244;-67
2022/07/29 11:25:25;;;;;;;9.05;2.38;;;26.10;92.20;;;;;;4998424;28;100274;-67
2022/07/29 11:27:54;;;;;;;9.20;2.30;;;26.50;91.40;;;;;;4982118;28;264727;-68
2022/07/29 11:30:20;;;;;;;11.93;2.17;;;26.50;90.30;;;;;;4979562;28;150473;-67
2022/07/29 11:32:47;;;;;;;10.13;1.90;;;26.40;89.20;;;;;;4970263;28;207858;-67
2022/07/29 11:35:20;;;;;;;8.70;1.92;;;26.30;88.00;;;;;;5016188;28;45267;-67
2022/07/29 11:37:47;;;;;;;8.00;1.92;;;26.20;86.90;;;;;;4966883;28;206632;-67
2022/07/29 11:40:15;;;;;;;10.93;1.85;;;26.20;86.00;;;;;;4999300;28;100164;-68
2022/07/29 11:42:45;;;;;;;9.75;2.00;;;26.10;85.80;;;;;;4963715;28;207008;-67
2022/07/29 11:45:15;;;;;;;8.77;1.83;;;26.10;85.40;;;;;;4998205;28;92843;-68
2022/07/29 11:47:52;;;;;;;8.63;1.98;;;26.20;85.60;;;;;;4950807;28;212422;-68
2022/07/29 11:50:37;;;;;;;9.73;1.95;;;26.20;84.70;;;;;;4999754;28;25726;-67
2022/07/29 11:53:11;;;;;;;8.98;1.98;;;26.20;83.70;;;;;;4967688;28;210781;-67
2022/07/29 11:55:40;;;;;;;7.65;2.00;;;26.20;84.00;;;;;;4950782;28;232380;-67
2022/07/29 11:58:06;;;;;;;9.80;2.38;;;26.30;84.90;;;;;;5009367;28;20180;-67
2022/07/29 12:00:40;;;;;;;8.15;1.90;;;26.30;83.40;;;;;;5015721;28;212418;-67
2022/07/29 12:03:10;;;;;;;9.77;2.40;;;26.40;83.20;;;;;;5066774;28;20059;-68
2022/07/29 12:05:42;;;;;;;7.20;1.90;;;26.50;82.20;;;;;;4974713;28;236518;-67
2022/07/29 12:08:19;;;;;;;8.90;2.15;;;26.50;82.30;;;;;;5067623;28;20059;-67
2022/07/29 12:10:47;;;;;;;10.30;1.90;;;26.60;82.50;;;;;;4991685;28;213772;-68
2022/07/29 12:13:15;;;;;;;9.70;1.92;;;26.80;82.20;;;;;;5049864;28;20051;-67
2022/07/29 12:15:43;;;;;;;11.35;2.22;;;27.00;82.10;;;;;;4998781;28;210520;-67
2022/07/29 12:18:22;;;;;;;12.55;2.30;;;27.20;81.40;;;;;;5072370;28;20437;-66
2022/07/29 12:20:55;;;;;;;9.70;2.20;;;27.70;82.80;;;;;;4978185;28;210035;-67
2022/07/29 12:23:22;;;;;;;8.52;2.13;;;28.20;81.90;;;;;;5048419;28;268512;-68
2022/07/29 12:25:48;;;;;;;9.88;2.40;;;28.40;79.60;;;;;;5003263;28;216545;-67
2022/07/29 12:28:18;;;;;;;10.50;2.20;;;28.30;77.90;;;;;;5045841;28;260888;-67
2022/07/29 12:30:48;;;;;;;7.85;1.90;;;28.20;77.00;;;;;;5008014;28;209176;-68
2022/07/29 12:33:17;;;;;;;7.53;1.90;;;28.30;77.20;;;;;;5048970;28;256199;-70
2022/07/29 12:35:46;;;;;;;9.90;2.00;;;28.40;76.70;;;;;;5020718;28;216697;-67
2022/07/29 12:38:13;;;;;;;8.68;1.80;;;28.50;75.80;;;;;;5050179;28;20060;-67
2022/07/29 12:40:40;;;;;;;8.23;1.90;;;28.80;74.60;;;;;;4996255;28;220979;-68
2022/07/29 12:43:12;;;;;;;8.27;1.88;;;28.90;72.70;;;;;;5049007;28;20057;-67
2022/07/29 12:45:40;;;;;;;10.02;2.05;;;29.10;72.30;;;;;;5026082;28;210760;-68
2022/07/29 12:48:10;;;;;;;9.73;1.70;;;29.20;71.10;;;;;;5066678;28;20056;-68
2022/07/29 12:50:52;;;;;;;7.95;1.83;;;29.20;70.40;;;;;;4987687;28;210832;-67
2022/07/29 12:53:19;;;;;;;10.32;1.90;;;29.10;70.10;;;;;;5031168;28;258918;-67
2022/07/29 12:55:48;;;;;;;8.45;2.00;;;29.10;70.20;;;;;;5017207;28;210794;-67
2022/07/29 12:58:34;;;;;;;9.88;1.70;;;29.30;69.00;;;;;;5054396;28;270696;-66